Time;durP1;ratioP1;P1;durP2;ratioP2;P2;SDS_P1;SDS_P2;PMS_P1;PMS_P2;Temp;Humidity;BMP_temperature;BMP_pressure;BME280_temperature;BME280_humidity;BME280_pressure;Samples;Min_cycle;Max_cycle;Signal;HPM_P1;HPM_P2
2023/07/18 00:02:05;;;;;;;8.82;5.97;;;;;;;;;;5113964;28;20055;-63
2023/07/18 00:04:31;;;;;;;6.78;5.63;;;;;;;;;;5113945;28;20061;-63
2023/07/18 00:06:56;;;;;;;7.93;5.40;;;;;;;;;;5113178;28;20044;-63
2023/07/18 00:09:22;;;;;;;8.07;5.33;;;;;;;;;;5113766;28;20269;-63
2023/07/18 00:11:47;;;;;;;10.23;6.30;;;;;;;;;;5113137;28;20278;-63
2023/07/18 00:14:14;;;;;;;9.15;6.38;;;;;;;;;;5113943;28;20678;-64
2023/07/18 00:16:40;;;;;;;8.55;6.75;;;;;;;;;;5113685;28;20073;-64
2023/07/18 00:19:05;;;;;;;8.37;6.57;;;;;;;;;;5113415;28;20028;-65
2023/07/18 00:21:30;;;;;;;12.60;6.82;;;;;;;;;;5112776;28;20282;-65
2023/07/18 00:23:55;;;;;;;7.22;6.13;;;;;;;;;;5113452;28;20016;-65
2023/07/18 00:26:24;;;;;;;6.25;5.22;;;;;;;;;;5112588;28;20023;-65
2023/07/18 00:28:53;;;;;;;8.20;6.20;;;;;;;;;;5105251;28;20355;-65
2023/07/18 00:31:18;;;;;;;7.60;5.75;;;;;;;;;;5111635;28;20134;-64
2023/07/18 00:33:43;;;;;;;6.63;5.40;;;;;;;;;;5112242;28;20494;-64
2023/07/18 00:36:09;;;;;;;8.70;6.03;;;;;;;;;;5111072;28;20027;-64
2023/07/18 00:38:34;;;;;;;10.00;6.22;;;;;;;;;;5112428;28;20281;-64
2023/07/18 00:40:59;;;;;;;7.67;5.20;;;;;;;;;;5108014;28;20038;-65
2023/07/18 00:43:25;;;;;;;10.07;6.33;;;;;;;;;;5111778;28;20854;-64
2023/07/18 00:45:50;;;;;;;8.45;5.70;;;;;;;;;;5108591;28;20675;-64
2023/07/18 00:48:16;;;;;;;11.60;5.90;;;;;;;;;;5093182;28;20027;-64
2023/07/18 00:50:41;;;;;;;7.13;5.50;;;;;;;;;;5093409;28;20024;-62
2023/07/18 00:53:07;;;;;;;10.13;6.30;;;;;;;;;;5093576;28;20032;-64
2023/07/18 00:55:32;;;;;;;6.50;5.30;;;;;;;;;;5099577;28;20084;-64
2023/07/18 00:57:58;;;;;;;7.43;5.38;;;;;;;;;;5113860;28;20371;-64
2023/07/18 01:00:23;;;;;;;7.35;5.45;;;;;;;;;;5097510;28;20086;-64
2023/07/18 01:02:49;;;;;;;7.30;6.22;;;;;;;;;;5094995;28;20024;-63
2023/07/18 01:05:19;;;;;;;12.63;5.78;;;;;;;;;;5094128;28;20020;-64
2023/07/18 01:07:47;;;;;;;7.38;5.70;;;;;;;;;;5098781;28;20108;-64
2023/07/18 01:10:16;;;;;;;11.80;5.80;;;;;;;;;;5104554;28;20100;-64
2023/07/18 01:12:42;;;;;;;8.82;5.60;;;;;;;;;;5112341;28;20023;-64
2023/07/18 01:15:08;;;;;;;8.68;5.45;;;;;;;;;;5090715;28;20032;-64
2023/07/18 01:17:33;;;;;;;10.50;5.45;;;;;;;;;;5112731;28;20107;-64
2023/07/18 01:19:59;;;;;;;9.38;5.47;;;;;;;;;;5109020;28;20114;-64
2023/07/18 01:22:24;;;;;;;10.02;5.65;;;;;;;;;;5113220;28;20063;-65
2023/07/18 01:24:49;;;;;;;7.75;5.43;;;;;;;;;;5109485;28;20024;-64
2023/07/18 01:27:15;;;;;;;9.82;5.57;;;;;;;;;;5103587;28;20390;-64
2023/07/18 01:29:40;;;;;;;7.97;5.90;;;;;;;;;;5106719;28;20020;-64
2023/07/18 01:32:05;;;;;;;12.52;5.95;;;;;;;;;;5104933;28;20020;-64
2023/07/18 01:34:31;;;;;;;11.70;6.80;;;;;;;;;;5096286;28;20062;-66
2023/07/18 01:36:57;;;;;;;8.45;5.55;;;;;;;;;;5106060;28;20478;-66
2023/07/18 01:39:22;;;;;;;10.25;6.13;;;;;;;;;;5107861;28;20043;-66
2023/07/18 01:41:47;;;;;;;9.37;5.10;;;;;;;;;;5098276;28;20035;-65
2023/07/18 01:44:13;;;;;;;10.90;5.25;;;;;;;;;;5103999;28;20375;-65
2023/07/18 01:46:38;;;;;;;11.60;5.63;;;;;;;;;;5112983;28;20463;-65
2023/07/18 01:49:03;;;;;;;7.00;4.57;;;;;;;;;;5106724;28;20519;-65
2023/07/18 01:51:28;;;;;;;8.45;5.28;;;;;;;;;;5094897;28;20398;-66
2023/07/18 01:53:54;;;;;;;8.20;5.15;;;;;;;;;;5092312;28;20031;-65
2023/07/18 01:56:19;;;;;;;7.45;5.53;;;;;;;;;;5096245;28;20059;-65
2023/07/18 01:58:44;;;;;;;7.97;5.20;;;;;;;;;;5106627;28;20061;-66
2023/07/18 02:01:09;;;;;;;7.88;5.50;;;;;;;;;;5092491;28;20047;-65
2023/07/18 02:03:35;;;;;;;7.70;5.78;;;;;;;;;;5104010;28;20019;-65
2023/07/18 02:06:01;;;;;;;5.80;4.15;;;;;;;;;;5111143;28;20028;-66
2023/07/18 02:08:26;;;;;;;5.72;4.60;;;;;;;;;;5099918;28;20077;-65
2023/07/18 02:10:51;;;;;;;8.02;4.82;;;;;;;;;;5104564;28;20084;-65
2023/07/18 02:13:17;;;;;;;9.48;5.53;;;;;;;;;;5101862;28;20054;-65
2023/07/18 02:15:42;;;;;;;7.82;5.25;;;;;;;;;;5092763;28;20039;-65
2023/07/18 02:18:07;;;;;;;10.77;5.43;;;;;;;;;;5097960;28;20060;-65
2023/07/18 02:20:33;;;;;;;8.88;5.35;;;;;;;;;;5103519;28;20031;-65
2023/07/18 02:23:00;;;;;;;11.57;4.88;;;;;;;;;;5108650;28;20412;-65
2023/07/18 02:25:26;;;;;;;9.32;5.30;;;;;;;;;;5107199;28;20035;-65
2023/07/18 02:27:51;;;;;;;6.18;4.22;;;;;;;;;;5096402;28;20026;-65
2023/07/18 02:30:17;;;;;;;6.85;4.80;;;;;;;;;;5104969;28;20030;-65
2023/07/18 02:32:43;;;;;;;8.57;5.05;;;;;;;;;;5104403;28;20030;-65
2023/07/18 02:35:08;;;;;;;11.73;4.97;;;;;;;;;;5093561;28;20065;-66
2023/07/18 02:37:34;;;;;;;9.18;4.22;;;;;;;;;;5096649;28;20385;-65
2023/07/18 02:40:00;;;;;;;9.85;4.80;;;;;;;;;;5093151;28;20057;-65
2023/07/18 02:42:25;;;;;;;7.38;5.00;;;;;;;;;;5094954;28;20102;-65
2023/07/18 02:44:51;;;;;;;9.13;4.88;;;;;;;;;;5101389;28;20092;-65
2023/07/18 02:47:16;;;;;;;8.07;4.88;;;;;;;;;;5093397;28;20020;-65
2023/07/18 02:49:41;;;;;;;8.43;4.80;;;;;;;;;;5109178;28;20054;-65
2023/07/18 02:52:07;;;;;;;10.60;5.28;;;;;;;;;;5101995;28;20431;-65
2023/07/18 02:54:32;;;;;;;7.75;5.25;;;;;;;;;;5095298;28;20028;-65
2023/07/18 02:56:58;;;;;;;6.07;3.83;;;;;;;;;;5092265;28;20034;-65
2023/07/18 02:59:24;;;;;;;7.28;4.32;;;;;;;;;;5093483;28;20081;-65
2023/07/18 03:01:50;;;;;;;12.38;4.88;;;;;;;;;;5091671;28;20028;-65
2023/07/18 03:04:15;;;;;;;9.73;4.60;;;;;;;;;;5104583;28;20751;-65
2023/07/18 03:06:45;;;;;;;7.55;4.32;;;;;;;;;;5091397;28;20028;-65
2023/07/18 03:09:10;;;;;;;11.13;4.00;;;;;;;;;;5108168;28;20024;-65
2023/07/18 03:11:35;;;;;;;8.15;3.90;;;;;;;;;;5105364;28;20027;-65
2023/07/18 03:14:01;;;;;;;8.70;4.47;;;;;;;;;;5108168;28;20391;-65
2023/07/18 03:16:26;;;;;;;7.67;3.90;;;;;;;;;;5093910;28;20536;-65
2023/07/18 03:18:51;;;;;;;9.60;4.27;;;;;;;;;;5095838;28;20606;-65
2023/07/18 03:21:17;;;;;;;11.18;4.80;;;;;;;;;;5095295;28;20294;-66
2023/07/18 03:23:42;;;;;;;6.60;4.07;;;;;;;;;;5084352;28;20032;-65
2023/07/18 03:26:07;;;;;;;6.82;3.63;;;;;;;;;;5094166;28;20031;-65
2023/07/18 03:28:45;;;;;;;6.47;3.88;;;;;;;;;;5106358;28;20015;-65
2023/07/18 03:31:10;;;;;;;5.47;3.70;;;;;;;;;;5103700;28;20027;-65
2023/07/18 03:33:36;;;;;;;6.60;3.95;;;;;;;;;;5109597;28;20065;-65
2023/07/18 03:36:01;;;;;;;8.43;4.60;;;;;;;;;;5107852;28;20085;-65
2023/07/18 03:38:27;;;;;;;7.25;4.22;;;;;;;;;;5110397;28;20051;-65
2023/07/18 03:40:52;;;;;;;5.85;4.00;;;;;;;;;;5113613;28;20500;-65
2023/07/18 03:43:17;;;;;;;6.47;3.78;;;;;;;;;;5092322;28;20079;-65
2023/07/18 03:45:43;;;;;;;5.23;3.43;;;;;;;;;;5114520;28;20031;-64
2023/07/18 03:48:08;;;;;;;8.60;3.00;;;;;;;;;;5098696;28;20277;-65
2023/07/18 03:50:33;;;;;;;11.13;3.28;;;;;;;;;;5094944;28;20020;-65
2023/07/18 03:52:59;;;;;;;11.25;2.70;;;;;;;;;;5093489;28;20032;-65
2023/07/18 03:55:24;;;;;;;6.90;3.65;;;;;;;;;;5095866;28;20420;-65
2023/07/18 03:57:49;;;;;;;5.30;3.20;;;;;;;;;;5097349;28;20347;-65
2023/07/18 04:00:17;;;;;;;6.68;2.95;;;;;;;;;;5103744;28;20028;-65
2023/07/18 04:02:43;;;;;;;6.25;3.38;;;;;;;;;;5110268;28;20529;-65
2023/07/18 04:05:08;;;;;;;6.78;3.20;;;;;;;;;;5094188;28;20103;-65
2023/07/18 04:07:34;;;;;;;6.03;3.05;;;;;;;;;;5094196;28;20031;-64
2023/07/18 04:09:59;;;;;;;6.95;3.15;;;;;;;;;;5103380;28;20497;-65
2023/07/18 04:12:24;;;;;;;6.60;3.40;;;;;;;;;;5095675;28;20463;-65
2023/07/18 04:14:50;;;;;;;5.75;3.33;;;;;;;;;;5102232;28;20423;-65
2023/07/18 04:17:16;;;;;;;8.30;4.32;;;;;;;;;;5077470;28;20024;-66
2023/07/18 04:19:41;;;;;;;6.05;3.35;;;;;;;;;;5107296;28;20027;-65
2023/07/18 04:22:06;;;;;;;4.70;3.20;;;;;;;;;;5114156;28;20099;-65
2023/07/18 04:24:32;;;;;;;4.45;2.88;;;;;;;;;;5113926;28;20019;-64
2023/07/18 04:26:57;;;;;;;7.82;3.47;;;;;;;;;;5110030;28;20030;-65
2023/07/18 04:29:24;;;;;;;7.78;3.67;;;;;;;;;;5106351;28;20024;-65
2023/07/18 04:31:49;;;;;;;7.53;3.28;;;;;;;;;;5106617;28;20016;-64
2023/07/18 04:34:16;;;;;;;9.00;3.35;;;;;;;;;;5095453;28;20430;-64
2023/07/18 04:36:42;;;;;;;6.97;3.45;;;;;;;;;;5102909;28;20032;-64
2023/07/18 04:39:08;;;;;;;6.97;3.33;;;;;;;;;;5104531;28;20043;-64
2023/07/18 04:41:33;;;;;;;7.70;3.25;;;;;;;;;;5097513;28;20060;-64
2023/07/18 04:43:58;;;;;;;8.30;3.92;;;;;;;;;;5096554;28;20055;-64
2023/07/18 04:46:23;;;;;;;7.18;3.50;;;;;;;;;;5108193;28;20020;-64
2023/07/18 04:48:49;;;;;;;8.18;3.47;;;;;;;;;;5113638;28;20088;-64
2023/07/18 04:51:16;;;;;;;5.75;3.40;;;;;;;;;;5100567;28;20123;-64
2023/07/18 04:53:41;;;;;;;5.65;3.67;;;;;;;;;;5100901;28;20027;-64
2023/07/18 04:56:07;;;;;;;5.55;3.97;;;;;;;;;;5100278;28;20028;-64
2023/07/18 04:58:32;;;;;;;7.78;3.47;;;;;;;;;;5102747;28;20019;-64
2023/07/18 05:00:59;;;;;;;5.93;3.15;;;;;;;;;;5099739;28;20054;-64
2023/07/18 05:03:27;;;;;;;7.05;3.47;;;;;;;;;;5104193;28;20046;-64
2023/07/18 05:05:53;;;;;;;5.45;3.40;;;;;;;;;;5096399;28;20024;-64
2023/07/18 05:08:21;;;;;;;7.47;3.63;;;;;;;;;;5102542;28;20080;-64
2023/07/18 05:10:46;;;;;;;9.98;3.45;;;;;;;;;;5093510;28;20522;-64
2023/07/18 05:13:12;;;;;;;10.75;2.88;;;;;;;;;;5103472;28;20111;-64
2023/07/18 05:15:37;;;;;;;4.93;3.33;;;;;;;;;;5110217;28;20016;-64
2023/07/18 05:18:05;;;;;;;5.13;3.20;;;;;;;;;;5112689;28;20028;-64
2023/07/18 05:20:31;;;;;;;6.25;3.60;;;;;;;;;;5111587;28;20027;-64
2023/07/18 05:22:56;;;;;;;7.05;3.60;;;;;;;;;;5106548;28;20025;-64
2023/07/18 05:25:21;;;;;;;8.27;3.25;;;;;;;;;;5101162;28;20473;-64
2023/07/18 05:27:46;;;;;;;10.18;4.13;;;;;;;;;;5102355;28;20144;-64
2023/07/18 05:30:13;;;;;;;7.95;3.63;;;;;;;;;;5104514;28;20408;-64
2023/07/18 05:32:39;;;;;;;9.05;3.97;;;;;;;;;;5099822;28;20023;-64
2023/07/18 05:35:05;;;;;;;5.63;4.03;;;;;;;;;;5109592;28;20061;-64
2023/07/18 05:37:30;;;;;;;12.60;4.35;;;;;;;;;;5112475;28;20035;-64
2023/07/18 05:39:55;;;;;;;7.22;3.60;;;;;;;;;;5108229;28;20028;-64
2023/07/18 05:42:21;;;;;;;13.55;4.75;;;;;;;;;;5096749;28;20024;-64
2023/07/18 05:44:46;;;;;;;12.18;4.60;;;;;;;;;;5102382;28;20027;-64
2023/07/18 05:47:12;;;;;;;12.05;3.65;;;;;;;;;;5092691;28;20060;-64
2023/07/18 05:49:37;;;;;;;8.68;3.65;;;;;;;;;;5105387;28;20474;-64
2023/07/18 05:52:02;;;;;;;14.90;3.73;;;;;;;;;;5093103;28;20036;-64
2023/07/18 05:54:30;;;;;;;7.38;3.53;;;;;;;;;;5098578;28;20348;-64
2023/07/18 05:56:55;;;;;;;7.25;3.78;;;;;;;;;;5092598;28;20039;-64
2023/07/18 05:59:21;;;;;;;9.50;3.92;;;;;;;;;;5099431;28;20382;-65
2023/07/18 06:01:46;;;;;;;12.02;4.50;;;;;;;;;;5112107;28;20650;-65
2023/07/18 06:04:13;;;;;;;9.23;4.28;;;;;;;;;;5100303;28;20031;-64
2023/07/18 06:06:38;;;;;;;16.23;4.43;;;;;;;;;;5092134;28;20032;-64
2023/07/18 06:09:04;;;;;;;7.55;4.00;;;;;;;;;;5091995;28;21144;-64
2023/07/18 06:11:29;;;;;;;18.37;4.77;;;;;;;;;;5091445;28;20020;-64
2023/07/18 06:13:54;;;;;;;7.32;3.88;;;;;;;;;;5094479;28;20266;-64
2023/07/18 06:16:20;;;;;;;12.10;3.88;;;;;;;;;;5102805;28;20374;-64
2023/07/18 06:18:46;;;;;;;12.05;4.07;;;;;;;;;;5094250;28;20073;-64
2023/07/18 06:21:11;;;;;;;11.75;3.78;;;;;;;;;;5103193;28;20553;-64
2023/07/18 06:23:36;;;;;;;8.30;3.73;;;;;;;;;;5093984;28;20111;-64
2023/07/18 06:26:01;;;;;;;15.07;3.22;;;;;;;;;;5111444;28;20293;-64
2023/07/18 06:28:27;;;;;;;10.40;3.57;;;;;;;;;;5095995;28;20093;-64
2023/07/18 06:30:55;;;;;;;10.90;3.42;;;;;;;;;;5110676;28;20277;-65
2023/07/18 06:33:21;;;;;;;7.78;3.33;;;;;;;;;;5098105;28;20065;-64
2023/07/18 06:35:53;;;;;;;10.15;3.60;;;;;;;;;;5102408;28;20036;-64
2023/07/18 06:38:19;;;;;;;8.60;3.95;;;;;;;;;;5093319;28;20036;-64
2023/07/18 06:40:44;;;;;;;7.00;3.25;;;;;;;;;;5108442;28;20382;-64
2023/07/18 06:43:10;;;;;;;11.15;3.47;;;;;;;;;;5096483;28;20127;-65
2023/07/18 06:45:37;;;;;;;9.07;3.07;;;;;;;;;;5095282;28;20031;-65
2023/07/18 06:48:03;;;;;;;8.65;2.92;;;;;;;;;;5091053;28;20627;-65
2023/07/18 06:50:31;;;;;;;6.53;2.63;;;;;;;;;;5101285;28;20024;-65
2023/07/18 06:52:57;;;;;;;7.78;2.85;;;;;;;;;;5094298;28;20057;-65
2023/07/18 06:55:22;;;;;;;8.70;2.63;;;;;;;;;;5098699;28;20111;-64
2023/07/18 06:57:47;;;;;;;6.77;3.20;;;;;;;;;;5092165;28;20270;-64
2023/07/18 07:00:13;;;;;;;5.72;3.05;;;;;;;;;;5091964;28;20298;-64
2023/07/18 07:02:38;;;;;;;5.95;2.67;;;;;;;;;;5107911;28;20484;-64
2023/07/18 07:05:04;;;;;;;6.10;2.50;;;;;;;;;;5110050;28;20569;-64
2023/07/18 07:07:29;;;;;;;4.90;1.98;;;;;;;;;;5097949;28;20023;-64
2023/07/18 07:09:54;;;;;;;4.53;2.17;;;;;;;;;;5109235;28;20050;-64
2023/07/18 07:12:20;;;;;;;5.28;2.30;;;;;;;;;;5103224;28;20016;-64
2023/07/18 07:14:45;;;;;;;6.67;3.23;;;;;;;;;;5111722;28;20038;-64
2023/07/18 07:17:11;;;;;;;7.97;2.50;;;;;;;;;;5100451;28;20278;-64
2023/07/18 07:19:36;;;;;;;6.93;2.90;;;;;;;;;;5102976;28;20377;-65
2023/07/18 07:22:01;;;;;;;8.95;2.63;;;;;;;;;;5106399;28;20032;-64
2023/07/18 07:24:27;;;;;;;11.13;2.15;;;;;;;;;;5101782;28;20462;-64
2023/07/18 07:26:52;;;;;;;6.03;2.22;;;;;;;;;;5108598;28;20099;-64
2023/07/18 07:29:17;;;;;;;8.00;2.77;;;;;;;;;;5108082;28;20485;-65
2023/07/18 07:31:42;;;;;;;6.20;2.53;;;;;;;;;;5106050;28;20335;-65
2023/07/18 07:34:08;;;;;;;4.72;2.28;;;;;;;;;;5088271;28;20305;-64
2023/07/18 07:36:33;;;;;;;8.80;2.10;;;;;;;;;;5105497;28;20024;-65
2023/07/18 07:38:58;;;;;;;5.22;2.20;;;;;;;;;;5090381;28;20278;-65
2023/07/18 07:41:24;;;;;;;7.35;2.75;;;;;;;;;;5099742;28;20028;-64
2023/07/18 07:43:50;;;;;;;6.15;1.92;;;;;;;;;;5098305;28;20035;-66
2023/07/18 07:46:15;;;;;;;3.90;2.03;;;;;;;;;;5095729;28;20028;-64
2023/07/18 07:48:41;;;;;;;10.35;2.05;;;;;;;;;;5103546;28;20042;-65
2023/07/18 07:51:06;;;;;;;9.80;2.22;;;;;;;;;;5104773;28;20359;-65
2023/07/18 07:53:31;;;;;;;5.60;2.03;;;;;;;;;;5111053;28;20062;-65
2023/07/18 07:55:57;;;;;;;3.97;1.90;;;;;;;;;;5100572;28;20466;-64
2023/07/18 07:58:22;;;;;;;10.82;2.05;;;;;;;;;;5095061;28;20027;-65
2023/07/18 08:00:47;;;;;;;3.80;1.93;;;;;;;;;;5112864;28;20117;-64
2023/07/18 08:03:12;;;;;;;6.90;2.17;;;;;;;;;;5102804;28;20749;-64
2023/07/18 08:05:38;;;;;;;5.88;2.60;;;;;;;;;;5102801;28;20326;-64
2023/07/18 08:08:03;;;;;;;8.38;1.73;;;;;;;;;;5102259;28;20020;-64
2023/07/18 08:10:29;;;;;;;7.43;2.08;;;;;;;;;;5105553;28;20028;-65
2023/07/18 08:12:54;;;;;;;10.63;2.97;;;;;;;;;;5113687;28;20012;-65
2023/07/18 08:15:19;;;;;;;8.85;2.42;;;;;;;;;;5106322;28;20297;-65
2023/07/18 08:17:45;;;;;;;7.40;2.40;;;;;;;;;;5105974;28;20103;-65
2023/07/18 08:20:12;;;;;;;7.75;2.30;;;;;;;;;;5104899;28;20039;-65
2023/07/18 08:22:37;;;;;;;4.07;1.90;;;;;;;;;;5105037;28;20026;-65
2023/07/18 08:25:03;;;;;;;8.57;2.60;;;;;;;;;;5104936;28;20956;-65
2023/07/18 08:27:29;;;;;;;6.80;2.53;;;;;;;;;;5099552;28;20030;-65
2023/07/18 08:29:55;;;;;;;10.68;2.40;;;;;;;;;;5105612;28;20012;-65
2023/07/18 08:32:20;;;;;;;9.38;3.20;;;;;;;;;;5094529;28;20020;-65
2023/07/18 08:34:45;;;;;;;6.20;1.90;;;;;;;;;;5106293;28;20026;-65
2023/07/18 08:37:10;;;;;;;6.82;2.10;;;;;;;;;;5100714;28;20447;-65
2023/07/18 08:39:37;;;;;;;9.37;2.30;;;;;;;;;;5105018;28;20068;-65
2023/07/18 08:42:04;;;;;;;5.60;2.67;;;;;;;;;;5106056;28;20350;-65
2023/07/18 08:44:30;;;;;;;4.97;2.05;;;;;;;;;;5099213;28;20470;-65
2023/07/18 08:46:55;;;;;;;6.30;2.60;;;;;;;;;;5093482;28;20027;-65
2023/07/18 08:49:23;;;;;;;7.53;2.40;;;;;;;;;;5093588;28;20055;-65
2023/07/18 08:51:48;;;;;;;4.53;2.35;;;;;;;;;;5105647;28;20062;-65
2023/07/18 08:54:14;;;;;;;8.77;2.25;;;;;;;;;;5092861;28;20048;-65
2023/07/18 08:56:43;;;;;;;10.65;2.50;;;;;;;;;;5093184;28;20042;-65
2023/07/18 08:59:09;;;;;;;7.43;2.15;;;;;;;;;;5105734;28;20463;-65
2023/07/18 09:01:35;;;;;;;4.90;1.88;;;;;;;;;;5098584;28;20024;-64
2023/07/18 09:04:00;;;;;;;11.27;2.80;;;;;;;;;;5094418;28;20479;-65
2023/07/18 09:06:26;;;;;;;12.38;2.55;;;;;;;;;;5090407;28;20027;-64
2023/07/18 09:08:53;;;;;;;4.53;1.80;;;;;;;;;;5112442;28;20054;-65
2023/07/18 09:11:19;;;;;;;6.25;1.98;;;;;;;;;;5109747;28;20016;-65
2023/07/18 09:13:45;;;;;;;6.18;2.50;;;;;;;;;;5113003;28;20089;-64
2023/07/18 09:16:20;;;;;;;6.10;2.28;;;;;;;;;;5111804;28;20026;-65
2023/07/18 09:18:52;;;;;;;7.90;2.25;;;;;;;;;;5108641;28;20036;-65
2023/07/18 09:21:18;;;;;;;7.75;1.73;;;;;;;;;;5104510;28;20046;-65
2023/07/18 09:23:44;;;;;;;6.32;2.10;;;;;;;;;;5108644;28;20024;-65
2023/07/18 09:26:13;;;;;;;5.22;1.98;;;;;;;;;;5101423;28;20098;-65
2023/07/18 09:28:38;;;;;;;8.10;2.45;;;;;;;;;;5109226;28;20020;-65
2023/07/18 09:31:24;;;;;;;7.30;2.05;;;;;;;;;;5102176;28;20027;-64
2023/07/18 09:33:50;;;;;;;7.13;2.03;;;;;;;;;;5103685;28;20040;-64
2023/07/18 09:36:23;;;;;;;7.07;2.30;;;;;;;;;;5101851;28;20019;-66
2023/07/18 09:38:49;;;;;;;3.80;2.10;;;;;;;;;;5108686;28;20394;-66
2023/07/18 09:41:15;;;;;;;6.25;2.35;;;;;;;;;;5098482;28;20616;-67
2023/07/18 09:43:41;;;;;;;4.05;1.70;;;;;;;;;;5098109;28;20028;-64
2023/07/18 09:46:07;;;;;;;4.20;1.73;;;;;;;;;;5104796;28;20016;-64
2023/07/18 09:48:32;;;;;;;3.58;1.95;;;;;;;;;;5111733;28;20035;-64
2023/07/18 09:50:58;;;;;;;6.13;2.22;;;;;;;;;;5104963;28;20043;-64
2023/07/18 09:53:24;;;;;;;3.67;1.92;;;;;;;;;;5098617;28;20032;-64
2023/07/18 09:55:50;;;;;;;7.15;1.90;;;;;;;;;;5106243;28;20035;-64
2023/07/18 09:58:19;;;;;;;4.53;1.90;;;;;;;;;;5108457;28;20485;-64
2023/07/18 10:00:44;;;;;;;3.80;1.20;;;;;;;;;;5099566;28;20096;-64
2023/07/18 10:03:10;;;;;;;4.63;1.33;;;;;;;;;;5104111;28;20032;-64
2023/07/18 10:05:35;;;;;;;3.78;1.48;;;;;;;;;;5093178;28;20473;-64
2023/07/18 10:08:08;;;;;;;4.45;2.28;;;;;;;;;;5096554;28;20490;-65
2023/07/18 10:10:33;;;;;;;4.18;1.85;;;;;;;;;;5093123;28;20020;-64
2023/07/18 10:12:59;;;;;;;5.83;2.23;;;;;;;;;;5105284;28;20034;-64
2023/07/18 10:15:25;;;;;;;4.97;1.60;;;;;;;;;;5096079;28;20277;-64
2023/07/18 10:17:50;;;;;;;5.88;1.90;;;;;;;;;;5105891;28;20186;-65
2023/07/18 10:20:20;;;;;;;5.77;2.17;;;;;;;;;;5095560;28;20036;-64
2023/07/18 10:22:46;;;;;;;5.88;2.35;;;;;;;;;;5101014;28;20348;-64
2023/07/18 10:25:12;;;;;;;6.22;2.13;;;;;;;;;;5104800;28;20020;-64
2023/07/18 10:27:38;;;;;;;5.57;2.30;;;;;;;;;;5101254;28;20024;-64
2023/07/18 10:30:13;;;;;;;5.22;1.98;;;;;;;;;;5107863;28;20046;-64
2023/07/18 10:32:39;;;;;;;10.55;2.08;;;;;;;;;;5105153;28;20027;-65
2023/07/18 10:35:08;;;;;;;7.05;2.40;;;;;;;;;;5109582;28;20474;-64
2023/07/18 10:37:33;;;;;;;5.03;2.08;;;;;;;;;;5102660;28;20031;-65
2023/07/18 10:40:04;;;;;;;4.57;2.33;;;;;;;;;;5109101;28;20018;-64
2023/07/18 10:42:32;;;;;;;4.10;1.83;;;;;;;;;;5096259;28;20024;-64
2023/07/18 10:44:58;;;;;;;4.57;1.83;;;;;;;;;;5100633;28;20462;-64
2023/07/18 10:47:24;;;;;;;4.95;1.85;;;;;;;;;;5103353;28;20058;-64
2023/07/18 10:49:49;;;;;;;4.18;2.03;;;;;;;;;;5102982;28;20408;-64
2023/07/18 10:52:15;;;;;;;4.97;2.40;;;;;;;;;;5102687;28;20047;-65
2023/07/18 10:54:46;;;;;;;3.90;1.50;;;;;;;;;;5101430;28;20340;-64
2023/07/18 10:57:13;;;;;;;7.43;1.92;;;;;;;;;;5103906;28;20430;-64
2023/07/18 10:59:41;;;;;;;4.85;1.70;;;;;;;;;;5102087;28;20425;-65
2023/07/18 11:02:06;;;;;;;7.10;1.67;;;;;;;;;;5105087;28;20030;-65
2023/07/18 11:04:32;;;;;;;9.25;1.73;;;;;;;;;;5104166;28;20020;-64
2023/07/18 11:06:59;;;;;;;4.80;1.70;;;;;;;;;;5102902;28;20155;-65
2023/07/18 11:09:24;;;;;;;3.40;1.73;;;;;;;;;;5099309;28;20042;-65
2023/07/18 11:11:50;;;;;;;9.82;2.22;;;;;;;;;;5091270;28;20032;-64
2023/07/18 11:14:16;;;;;;;6.18;2.10;;;;;;;;;;5100905;28;20043;-65
2023/07/18 11:16:42;;;;;;;5.13;1.77;;;;;;;;;;5105666;28;20110;-65
2023/07/18 11:19:07;;;;;;;5.82;2.17;;;;;;;;;;5110325;28;20103;-64
2023/07/18 11:21:33;;;;;;;7.55;2.35;;;;;;;;;;5106442;28;20035;-65
2023/07/18 11:23:58;;;;;;;6.93;2.50;;;;;;;;;;5107531;28;20020;-65
2023/07/18 11:26:24;;;;;;;5.43;2.53;;;;;;;;;;5111144;28;20034;-65
2023/07/18 11:28:50;;;;;;;4.93;1.98;;;;;;;;;;5108703;28;20538;-65
2023/07/18 11:31:19;;;;;;;7.35;2.35;;;;;;;;;;5114846;28;20048;-65
2023/07/18 11:33:51;;;;;;;4.90;2.33;;;;;;;;;;5111506;28;20112;-65
2023/07/18 11:36:17;;;;;;;9.27;2.17;;;;;;;;;;5104477;28;20371;-65
2023/07/18 11:38:43;;;;;;;4.75;2.40;;;;;;;;;;5108709;28;20027;-64
2023/07/18 11:41:14;;;;;;;5.53;2.58;;;;;;;;;;5106535;28;20109;-65
2023/07/18 11:43:41;;;;;;;9.88;2.28;;;;;;;;;;5100565;28;20031;-65
2023/07/18 11:46:06;;;;;;;5.53;2.50;;;;;;;;;;5108117;28;20036;-64
2023/07/18 11:48:32;;;;;;;6.07;2.35;;;;;;;;;;5104886;28;20385;-65
2023/07/18 11:51:01;;;;;;;7.95;2.20;;;;;;;;;;5104608;28;20481;-65
2023/07/18 11:53:26;;;;;;;7.70;2.20;;;;;;;;;;5094022;28;20026;-64
2023/07/18 11:55:52;;;;;;;5.55;2.38;;;;;;;;;;5096620;28;20023;-65
2023/07/18 11:58:18;;;;;;;11.90;2.30;;;;;;;;;;5095750;28;20055;-65
2023/07/18 12:00:43;;;;;;;4.93;2.70;;;;;;;;;;5089819;28;20059;-63
2023/07/18 12:03:08;;;;;;;5.60;2.37;;;;;;;;;;5110450;28;20024;-65
2023/07/18 12:05:33;;;;;;;4.28;2.35;;;;;;;;;;5103847;28;20348;-65
2023/07/18 12:07:59;;;;;;;6.37;2.30;;;;;;;;;;5109012;28;20068;-70
2023/07/18 12:10:24;;;;;;;4.57;2.43;;;;;;;;;;5104523;28;20356;-66
2023/07/18 12:12:49;;;;;;;5.37;2.40;;;;;;;;;;5105358;28;20771;-65
2023/07/18 12:15:14;;;;;;;5.70;2.10;;;;;;;;;;5101251;28;20023;-67
2023/07/18 12:17:40;;;;;;;5.90;2.43;;;;;;;;;;5110040;28;20360;-67
2023/07/18 12:20:06;;;;;;;6.10;2.45;;;;;;;;;;5110947;28;20409;-67
2023/07/18 12:22:31;;;;;;;4.35;2.55;;;;;;;;;;5099346;28;20390;-67
2023/07/18 12:24:57;;;;;;;3.97;2.58;;;;;;;;;;5112191;28;20054;-67
2023/07/18 12:27:22;;;;;;;4.10;2.37;;;;;;;;;;5105118;28;20016;-68
2023/07/18 12:29:47;;;;;;;4.33;2.43;;;;;;;;;;5099366;28;20287;-68
2023/07/18 12:32:12;;;;;;;5.13;2.50;;;;;;;;;;5102585;28;20528;-66
2023/07/18 12:34:39;;;;;;;4.17;2.40;;;;;;;;;;5098442;28;20023;-66
2023/07/18 12:37:04;;;;;;;5.38;2.20;;;;;;;;;;5077507;28;20731;-65
2023/07/18 12:39:30;;;;;;;5.38;2.97;;;;;;;;;;5095465;28;20044;-65
2023/07/18 12:41:55;;;;;;;5.00;2.35;;;;;;;;;;5093809;28;20390;-66
2023/07/18 12:44:20;;;;;;;4.90;2.42;;;;;;;;;;5106285;28;20023;-66
2023/07/18 12:46:46;;;;;;;5.40;2.23;;;;;;;;;;5112817;28;20042;-66
2023/07/18 12:49:11;;;;;;;6.28;2.63;;;;;;;;;;5113216;28;20071;-66
2023/07/18 12:51:37;;;;;;;5.30;2.30;;;;;;;;;;5112961;28;20032;-66
2023/07/18 12:54:02;;;;;;;4.05;2.05;;;;;;;;;;5113891;28;20055;-66
2023/07/18 12:56:29;;;;;;;7.00;2.40;;;;;;;;;;5098315;28;20020;-65
2023/07/18 12:58:54;;;;;;;5.43;2.50;;;;;;;;;;5110513;28;20031;-65
2023/07/18 13:01:20;;;;;;;4.65;2.15;;;;;;;;;;5094624;28;20375;-65
2023/07/18 13:03:45;;;;;;;5.03;2.55;;;;;;;;;;5112955;28;20358;-67
2023/07/18 13:06:11;;;;;;;4.10;2.17;;;;;;;;;;5104101;28;20380;-66
2023/07/18 13:08:36;;;;;;;4.93;1.92;;;;;;;;;;5103857;28;20012;-66
2023/07/18 13:11:01;;;;;;;7.75;2.80;;;;;;;;;;5097148;28;20028;-65
2023/07/18 13:13:27;;;;;;;5.38;2.03;;;;;;;;;;5097486;28;20380;-65
2023/07/18 13:15:52;;;;;;;4.57;2.30;;;;;;;;;;5106355;28;20028;-65
2023/07/18 13:18:17;;;;;;;3.23;2.20;;;;;;;;;;5102548;28;20018;-64
2023/07/18 13:20:44;;;;;;;4.95;2.15;;;;;;;;;;5088030;28;20290;-64
2023/07/18 13:23:09;;;;;;;5.30;2.10;;;;;;;;;;5106529;28;20030;-66
2023/07/18 13:25:35;;;;;;;11.90;2.42;;;;;;;;;;5098269;28;20629;-66
2023/07/18 13:28:00;;;;;;;3.13;2.03;;;;;;;;;;5098045;28;20062;-66
2023/07/18 13:30:25;;;;;;;5.53;2.53;;;;;;;;;;5107871;28;20031;-65
2023/07/18 13:32:50;;;;;;;6.13;2.63;;;;;;;;;;5110215;28;20281;-65
2023/07/18 13:35:16;;;;;;;6.30;2.23;;;;;;;;;;5111440;28;20032;-66
2023/07/18 13:37:41;;;;;;;4.67;2.57;;;;;;;;;;5100379;28;20028;-66
2023/07/18 13:40:07;;;;;;;4.23;2.40;;;;;;;;;;5107589;28;20110;-68
2023/07/18 13:42:32;;;;;;;5.18;2.63;;;;;;;;;;5101756;28;20682;-66
2023/07/18 13:44:57;;;;;;;5.87;2.63;;;;;;;;;;5097516;28;20367;-66
2023/07/18 13:47:22;;;;;;;3.40;1.80;;;;;;;;;;5103963;28;20269;-66
2023/07/18 13:49:48;;;;;;;7.85;2.55;;;;;;;;;;5103217;28;20316;-66
2023/07/18 13:52:13;;;;;;;7.17;2.13;;;;;;;;;;5100821;28;20458;-64
2023/07/18 13:54:38;;;;;;;5.57;2.50;;;;;;;;;;5094294;28;20301;-64
2023/07/18 13:57:04;;;;;;;5.80;2.50;;;;;;;;;;5102638;28;20265;-65
2023/07/18 13:59:29;;;;;;;5.40;2.08;;;;;;;;;;5106206;28;20022;-65
2023/07/18 14:01:54;;;;;;;4.87;2.10;;;;;;;;;;5096065;28;20116;-65
2023/07/18 14:04:19;;;;;;;5.27;2.10;;;;;;;;;;5097396;28;20295;-64
2023/07/18 14:06:45;;;;;;;6.67;2.33;;;;;;;;;;5108814;28;20633;-64
2023/07/18 14:09:10;;;;;;;4.43;2.40;;;;;;;;;;5107361;28;20289;-64
2023/07/18 14:11:35;;;;;;;4.47;2.20;;;;;;;;;;5108203;28;20018;-65
2023/07/18 14:14:00;;;;;;;4.60;2.47;;;;;;;;;;5107879;28;20278;-65
2023/07/18 14:16:26;;;;;;;4.27;2.07;;;;;;;;;;5110614;28;20043;-64
2023/07/18 14:18:51;;;;;;;9.50;2.53;;;;;;;;;;5105831;28;20324;-65
2023/07/18 14:21:16;;;;;;;5.13;2.05;;;;;;;;;;5104776;28;20304;-64
2023/07/18 14:23:42;;;;;;;4.00;2.10;;;;;;;;;;5108783;28;20425;-64
2023/07/18 14:26:08;;;;;;;5.20;2.33;;;;;;;;;;5111055;28;20258;-65
2023/07/18 14:28:34;;;;;;;3.80;2.35;;;;;;;;;;5108534;28;20340;-65
2023/07/18 14:30:59;;;;;;;4.30;2.20;;;;;;;;;;5110240;28;20027;-64
2023/07/18 14:33:24;;;;;;;4.38;2.47;;;;;;;;;;5096102;28;20278;-62